sensor_id;sensor_type;location;lat;lon;timestamp;P1;durP1;ratioP1;P2;durP2;ratioP2
19167;SDS011;9716;53.114;18.040;2022-07-22T00:02:48;10.73;;;7.03;;
19167;SDS011;9716;53.114;18.040;2022-07-22T00:05:17;16.70;;;7.97;;
19167;SDS011;9716;53.114;18.040;2022-07-22T00:07:46;18.42;;;7.22;;
19167;SDS011;9716;53.114;18.040;2022-07-22T00:10:16;16.52;;;6.63;;
19167;SDS011;9716;53.114;18.040;2022-07-22T00:12:45;17.92;;;6.68;;
19167;SDS011;9716;53.114;18.040;2022-07-22T00:15:16;14.38;;;6.78;;
19167;SDS011;9716;53.114;18.040;2022-07-22T00:17:45;9.82;;;6.47;;
19167;SDS011;9716;53.114;18.040;2022-07-22T00:20:14;12.80;;;6.47;;
19167;SDS011;9716;53.114;18.040;2022-07-22T00:22:45;13.75;;;7.15;;
19167;SDS011;9716;53.114;18.040;2022-07-22T00:25:15;13.55;;;7.15;;
19167;SDS011;9716;53.114;18.040;2022-07-22T00:27:45;12.32;;;6.65;;
19167;SDS011;9716;53.114;18.040;2022-07-22T00:30:18;12.40;;;7.20;;
19167;SDS011;9716;53.114;18.040;2022-07-22T00:32:48;11.75;;;5.88;;
19167;SDS011;9716;53.114;18.040;2022-07-22T00:35:17;15.63;;;6.53;;
19167;SDS011;9716;53.114;18.040;2022-07-22T00:37:47;11.93;;;6.63;;
19167;SDS011;9716;53.114;18.040;2022-07-22T00:40:17;13.07;;;7.38;;
19167;SDS011;9716;53.114;18.040;2022-07-22T00:42:46;11.57;;;6.25;;
19167;SDS011;9716;53.114;18.040;2022-07-22T00:45:16;18.50;;;6.53;;
19167;SDS011;9716;53.114;18.040;2022-07-22T00:47:47;9.13;;;6.45;;
19167;SDS011;9716;53.114;18.040;2022-07-22T00:50:16;14.77;;;6.05;;
19167;SDS011;9716;53.114;18.040;2022-07-22T00:52:46;10.73;;;6.90;;
19167;SDS011;9716;53.114;18.040;2022-07-22T00:55:16;13.00;;;6.85;;
19167;SDS011;9716;53.114;18.040;2022-07-22T00:57:45;11.80;;;6.65;;
19167;SDS011;9716;53.114;18.040;2022-07-22T01:00:15;10.93;;;6.07;;
19167;SDS011;9716;53.114;18.040;2022-07-22T01:02:48;10.80;;;6.38;;
19167;SDS011;9716;53.114;18.040;2022-07-22T01:05:17;14.38;;;6.32;;
19167;SDS011;9716;53.114;18.040;2022-07-22T01:07:47;10.10;;;6.22;;
19167;SDS011;9716;53.114;18.040;2022-07-22T01:10:17;14.65;;;6.32;;
19167;SDS011;9716;53.114;18.040;2022-07-22T01:12:46;14.20;;;6.43;;
19167;SDS011;9716;53.114;18.040;2022-07-22T01:15:16;12.57;;;6.78;;
19167;SDS011;9716;53.114;18.040;2022-07-22T01:17:45;8.73;;;5.85;;
19167;SDS011;9716;53.114;18.040;2022-07-22T01:20:18;11.13;;;6.75;;
19167;SDS011;9716;53.114;18.040;2022-07-22T01:22:47;11.70;;;6.15;;
19167;SDS011;9716;53.114;18.040;2022-07-22T01:25:16;9.70;;;6.85;;
19167;SDS011;9716;53.114;18.040;2022-07-22T01:27:45;10.82;;;6.68;;
19167;SDS011;9716;53.114;18.040;2022-07-22T01:30:16;16.92;;;6.65;;
19167;SDS011;9716;53.114;18.040;2022-07-22T01:32:45;13.43;;;6.88;;
19167;SDS011;9716;53.114;18.040;2022-07-22T01:35:14;13.02;;;6.85;;
19167;SDS011;9716;53.114;18.040;2022-07-22T01:37:48;14.65;;;6.57;;
19167;SDS011;9716;53.114;18.040;2022-07-22T01:40:17;11.20;;;6.15;;
19167;SDS011;9716;53.114;18.040;2022-07-22T01:42:47;11.45;;;6.72;;
19167;SDS011;9716;53.114;18.040;2022-07-22T01:45:16;11.65;;;6.90;;
19167;SDS011;9716;53.114;18.040;2022-07-22T01:47:46;11.68;;;7.00;;
19167;SDS011;9716;53.114;18.040;2022-07-22T01:50:16;10.15;;;6.35;;
19167;SDS011;9716;53.114;18.040;2022-07-22T01:52:45;10.02;;;6.78;;
19167;SDS011;9716;53.114;18.040;2022-07-22T01:55:16;12.52;;;6.95;;
19167;SDS011;9716;53.114;18.040;2022-07-22T01:57:45;12.80;;;7.32;;
19167;SDS011;9716;53.114;18.040;2022-07-22T02:00:15;17.30;;;6.82;;
19167;SDS011;9716;53.114;18.040;2022-07-22T02:02:45;16.98;;;7.82;;
19167;SDS011;9716;53.114;18.040;2022-07-22T02:05:15;13.82;;;6.95;;
19167;SDS011;9716;53.114;18.040;2022-07-22T02:07:45;12.63;;;7.28;;
19167;SDS011;9716;53.114;18.040;2022-07-22T02:10:15;9.10;;;6.90;;
19167;SDS011;9716;53.114;18.040;2022-07-22T02:12:44;9.73;;;6.93;;
19167;SDS011;9716;53.114;18.040;2022-07-22T02:15:14;16.75;;;7.85;;
19167;SDS011;9716;53.114;18.040;2022-07-22T02:17:43;12.90;;;7.63;;
19167;SDS011;9716;53.114;18.040;2022-07-22T02:20:12;9.80;;;6.57;;
19167;SDS011;9716;53.114;18.040;2022-07-22T02:22:41;12.05;;;6.47;;
19167;SDS011;9716;53.114;18.040;2022-07-22T02:25:11;13.80;;;7.07;;
19167;SDS011;9716;53.114;18.040;2022-07-22T02:27:42;16.20;;;7.97;;
19167;SDS011;9716;53.114;18.040;2022-07-22T02:30:11;15.00;;;6.90;;
19167;SDS011;9716;53.114;18.040;2022-07-22T02:32:41;11.13;;;7.07;;
19167;SDS011;9716;53.114;18.040;2022-07-22T02:35:10;13.25;;;7.90;;
19167;SDS011;9716;53.114;18.040;2022-07-22T02:37:43;17.27;;;7.50;;
19167;SDS011;9716;53.114;18.040;2022-07-22T02:40:12;12.60;;;6.53;;
19167;SDS011;9716;53.114;18.040;2022-07-22T02:42:44;15.00;;;7.30;;
19167;SDS011;9716;53.114;18.040;2022-07-22T02:45:14;15.32;;;7.30;;
19167;SDS011;9716;53.114;18.040;2022-07-22T02:47:45;11.00;;;6.50;;
19167;SDS011;9716;53.114;18.040;2022-07-22T02:50:16;20.42;;;7.07;;
19167;SDS011;9716;53.114;18.040;2022-07-22T02:52:46;36.33;;;8.13;;
19167;SDS011;9716;53.114;18.040;2022-07-22T02:55:17;11.98;;;7.45;;
19167;SDS011;9716;53.114;18.040;2022-07-22T02:57:49;14.75;;;7.22;;
19167;SDS011;9716;53.114;18.040;2022-07-22T03:00:18;14.07;;;7.90;;
19167;SDS011;9716;53.114;18.040;2022-07-22T03:02:49;10.60;;;6.80;;
19167;SDS011;9716;53.114;18.040;2022-07-22T03:05:19;12.50;;;7.28;;
19167;SDS011;9716;53.114;18.040;2022-07-22T03:07:48;11.95;;;6.90;;
19167;SDS011;9716;53.114;18.040;2022-07-22T03:10:18;11.63;;;7.10;;
19167;SDS011;9716;53.114;18.040;2022-07-22T03:12:49;11.43;;;7.63;;
19167;SDS011;9716;53.114;18.040;2022-07-22T03:15:19;16.73;;;7.72;;
19167;SDS011;9716;53.114;18.040;2022-07-22T03:17:49;13.93;;;7.38;;
19167;SDS011;9716;53.114;18.040;2022-07-22T03:20:18;18.10;;;8.45;;
19167;SDS011;9716;53.114;18.040;2022-07-22T03:22:48;16.92;;;7.53;;
19167;SDS011;9716;53.114;18.040;2022-07-22T03:25:18;14.77;;;8.43;;
19167;SDS011;9716;53.114;18.040;2022-07-22T03:27:49;14.65;;;7.90;;
19167;SDS011;9716;53.114;18.040;2022-07-22T03:30:19;15.32;;;7.70;;
19167;SDS011;9716;53.114;18.040;2022-07-22T03:32:49;12.70;;;7.07;;
19167;SDS011;9716;53.114;18.040;2022-07-22T03:35:18;24.33;;;8.23;;
19167;SDS011;9716;53.114;18.040;2022-07-22T03:37:47;15.60;;;8.27;;
19167;SDS011;9716;53.114;18.040;2022-07-22T03:40:17;17.30;;;8.25;;
19167;SDS011;9716;53.114;18.040;2022-07-22T03:42:47;13.82;;;7.72;;
19167;SDS011;9716;53.114;18.040;2022-07-22T03:45:19;11.38;;;6.97;;
19167;SDS011;9716;53.114;18.040;2022-07-22T03:47:49;12.77;;;7.43;;
19167;SDS011;9716;53.114;18.040;2022-07-22T03:50:22;14.93;;;8.18;;
19167;SDS011;9716;53.114;18.040;2022-07-22T03:52:51;21.30;;;7.93;;
19167;SDS011;9716;53.114;18.040;2022-07-22T03:55:21;20.63;;;7.93;;
19167;SDS011;9716;53.114;18.040;2022-07-22T03:57:51;9.25;;;6.70;;
19167;SDS011;9716;53.114;18.040;2022-07-22T04:00:22;21.60;;;8.65;;
19167;SDS011;9716;53.114;18.040;2022-07-22T04:02:53;13.13;;;7.72;;
19167;SDS011;9716;53.114;18.040;2022-07-22T04:05:24;12.68;;;7.50;;
19167;SDS011;9716;53.114;18.040;2022-07-22T04:07:54;13.38;;;7.43;;
19167;SDS011;9716;53.114;18.040;2022-07-22T04:10:24;16.38;;;8.60;;
19167;SDS011;9716;53.114;18.040;2022-07-22T04:12:54;13.15;;;7.10;;
19167;SDS011;9716;53.114;18.040;2022-07-22T04:15:26;16.05;;;8.10;;
19167;SDS011;9716;53.114;18.040;2022-07-22T04:17:55;20.38;;;7.97;;
19167;SDS011;9716;53.114;18.040;2022-07-22T04:20:25;17.42;;;9.02;;
19167;SDS011;9716;53.114;18.040;2022-07-22T04:22:55;11.02;;;7.75;;
19167;SDS011;9716;53.114;18.040;2022-07-22T04:25:24;13.43;;;7.85;;
19167;SDS011;9716;53.114;18.040;2022-07-22T04:27:54;14.32;;;7.05;;
19167;SDS011;9716;53.114;18.040;2022-07-22T04:30:23;12.50;;;7.78;;
19167;SDS011;9716;53.114;18.040;2022-07-22T04:32:54;15.60;;;7.47;;
19167;SDS011;9716;53.114;18.040;2022-07-22T04:35:23;15.90;;;7.88;;
19167;SDS011;9716;53.114;18.040;2022-07-22T04:37:52;14.73;;;7.68;;
19167;SDS011;9716;53.114;18.040;2022-07-22T04:40:22;13.95;;;8.00;;
19167;SDS011;9716;53.114;18.040;2022-07-22T04:42:51;11.57;;;7.68;;
19167;SDS011;9716;53.114;18.040;2022-07-22T04:45:20;13.32;;;8.02;;
19167;SDS011;9716;53.114;18.040;2022-07-22T04:47:50;17.70;;;8.93;;
19167;SDS011;9716;53.114;18.040;2022-07-22T04:50:19;14.52;;;7.80;;
19167;SDS011;9716;53.114;18.040;2022-07-22T04:52:49;16.58;;;7.28;;
19167;SDS011;9716;53.114;18.040;2022-07-22T04:55:18;17.30;;;7.10;;
19167;SDS011;9716;53.114;18.040;2022-07-22T04:57:47;14.65;;;7.47;;
19167;SDS011;9716;53.114;18.040;2022-07-22T05:00:16;13.02;;;7.78;;
19167;SDS011;9716;53.114;18.040;2022-07-22T05:02:45;14.18;;;7.95;;
19167;SDS011;9716;53.114;18.040;2022-07-22T05:05:16;18.63;;;7.90;;
19167;SDS011;9716;53.114;18.040;2022-07-22T05:07:45;22.02;;;8.48;;
19167;SDS011;9716;53.114;18.040;2022-07-22T05:10:15;12.25;;;7.30;;
19167;SDS011;9716;53.114;18.040;2022-07-22T05:12:47;10.93;;;6.90;;
19167;SDS011;9716;53.114;18.040;2022-07-22T05:15:18;16.50;;;7.97;;
19167;SDS011;9716;53.114;18.040;2022-07-22T05:17:47;13.00;;;7.32;;
19167;SDS011;9716;53.114;18.040;2022-07-22T05:20:18;15.82;;;8.40;;
19167;SDS011;9716;53.114;18.040;2022-07-22T05:22:47;20.92;;;8.45;;
19167;SDS011;9716;53.114;18.040;2022-07-22T05:25:17;16.75;;;8.38;;
19167;SDS011;9716;53.114;18.040;2022-07-22T05:27:49;21.33;;;7.40;;
19167;SDS011;9716;53.114;18.040;2022-07-22T05:30:19;15.02;;;8.07;;
19167;SDS011;9716;53.114;18.040;2022-07-22T05:32:50;15.45;;;8.05;;
19167;SDS011;9716;53.114;18.040;2022-07-22T05:35:21;17.60;;;8.23;;
19167;SDS011;9716;53.114;18.040;2022-07-22T05:37:50;15.95;;;7.05;;
19167;SDS011;9716;53.114;18.040;2022-07-22T05:40:20;12.65;;;8.43;;
19167;SDS011;9716;53.114;18.040;2022-07-22T05:42:49;12.32;;;7.82;;
19167;SDS011;9716;53.114;18.040;2022-07-22T05:45:18;16.42;;;8.23;;
19167;SDS011;9716;53.114;18.040;2022-07-22T05:47:47;12.38;;;8.10;;
19167;SDS011;9716;53.114;18.040;2022-07-22T05:50:16;13.13;;;7.90;;
19167;SDS011;9716;53.114;18.040;2022-07-22T05:52:46;17.65;;;8.00;;
19167;SDS011;9716;53.114;18.040;2022-07-22T05:55:16;10.02;;;7.60;;
19167;SDS011;9716;53.114;18.040;2022-07-22T05:57:46;19.15;;;8.00;;
19167;SDS011;9716;53.114;18.040;2022-07-22T06:00:15;15.77;;;7.72;;
19167;SDS011;9716;53.114;18.040;2022-07-22T06:02:46;14.48;;;8.27;;
19167;SDS011;9716;53.114;18.040;2022-07-22T06:05:16;16.63;;;7.82;;
19167;SDS011;9716;53.114;18.040;2022-07-22T06:08:04;19.00;;;8.30;;
19167;SDS011;9716;53.114;18.040;2022-07-22T06:10:34;17.10;;;8.70;;
19167;SDS011;9716;53.114;18.040;2022-07-22T06:13:03;12.80;;;8.02;;
19167;SDS011;9716;53.114;18.040;2022-07-22T06:15:36;21.73;;;7.57;;
19167;SDS011;9716;53.114;18.040;2022-07-22T06:18:05;9.75;;;6.32;;
19167;SDS011;9716;53.114;18.040;2022-07-22T06:20:34;19.08;;;7.05;;
19167;SDS011;9716;53.114;18.040;2022-07-22T06:23:05;13.20;;;7.53;;
19167;SDS011;9716;53.114;18.040;2022-07-22T06:25:35;10.63;;;7.32;;
19167;SDS011;9716;53.114;18.040;2022-07-22T06:28:09;18.08;;;7.65;;
19167;SDS011;9716;53.114;18.040;2022-07-22T06:30:39;15.75;;;7.18;;
19167;SDS011;9716;53.114;18.040;2022-07-22T06:33:08;14.10;;;8.00;;
19167;SDS011;9716;53.114;18.040;2022-07-22T06:35:38;20.60;;;8.23;;
19167;SDS011;9716;53.114;18.040;2022-07-22T06:38:11;15.52;;;7.28;;
19167;SDS011;9716;53.114;18.040;2022-07-22T06:40:57;16.58;;;8.73;;
19167;SDS011;9716;53.114;18.040;2022-07-22T06:43:26;14.77;;;7.57;;
19167;SDS011;9716;53.114;18.040;2022-07-22T06:45:56;13.45;;;7.10;;
19167;SDS011;9716;53.114;18.040;2022-07-22T06:48:25;19.85;;;7.32;;
19167;SDS011;9716;53.114;18.040;2022-07-22T06:50:55;13.88;;;8.48;;
19167;SDS011;9716;53.114;18.040;2022-07-22T06:53:25;13.85;;;8.45;;
19167;SDS011;9716;53.114;18.040;2022-07-22T06:55:55;17.83;;;8.85;;
19167;SDS011;9716;53.114;18.040;2022-07-22T06:58:31;14.30;;;9.10;;
19167;SDS011;9716;53.114;18.040;2022-07-22T07:01:01;19.58;;;7.68;;
19167;SDS011;9716;53.114;18.040;2022-07-22T07:03:30;16.60;;;7.78;;
19167;SDS011;9716;53.114;18.040;2022-07-22T07:06:02;13.55;;;8.00;;
19167;SDS011;9716;53.114;18.040;2022-07-22T07:08:33;18.00;;;10.45;;
19167;SDS011;9716;53.114;18.040;2022-07-22T07:11:07;16.85;;;9.05;;
19167;SDS011;9716;53.114;18.040;2022-07-22T07:13:36;16.70;;;9.13;;
19167;SDS011;9716;53.114;18.040;2022-07-22T07:16:06;19.33;;;9.10;;
19167;SDS011;9716;53.114;18.040;2022-07-22T07:18:36;21.70;;;8.18;;
19167;SDS011;9716;53.114;18.040;2022-07-22T07:21:05;14.90;;;8.10;;
19167;SDS011;9716;53.114;18.040;2022-07-22T07:23:36;13.90;;;7.43;;
19167;SDS011;9716;53.114;18.040;2022-07-22T07:26:06;15.00;;;8.48;;
19167;SDS011;9716;53.114;18.040;2022-07-22T07:28:36;18.13;;;7.45;;
19167;SDS011;9716;53.114;18.040;2022-07-22T07:31:07;14.82;;;8.10;;
19167;SDS011;9716;53.114;18.040;2022-07-22T07:33:37;18.13;;;7.25;;
19167;SDS011;9716;53.114;18.040;2022-07-22T07:36:06;11.57;;;7.15;;
19167;SDS011;9716;53.114;18.040;2022-07-22T07:38:37;19.73;;;7.22;;
19167;SDS011;9716;53.114;18.040;2022-07-22T07:41:06;23.58;;;8.30;;
19167;SDS011;9716;53.114;18.040;2022-07-22T07:43:35;8.20;;;6.15;;
19167;SDS011;9716;53.114;18.040;2022-07-22T07:46:05;17.52;;;7.32;;
19167;SDS011;9716;53.114;18.040;2022-07-22T07:48:35;22.75;;;7.75;;
19167;SDS011;9716;53.114;18.040;2022-07-22T07:51:04;9.63;;;6.55;;
19167;SDS011;9716;53.114;18.040;2022-07-22T07:53:35;11.27;;;6.88;;
19167;SDS011;9716;53.114;18.040;2022-07-22T07:56:06;16.70;;;7.28;;
19167;SDS011;9716;53.114;18.040;2022-07-22T07:58:36;19.52;;;6.53;;
19167;SDS011;9716;53.114;18.040;2022-07-22T08:01:06;11.85;;;6.03;;
19167;SDS011;9716;53.114;18.040;2022-07-22T08:03:38;9.93;;;6.60;;
19167;SDS011;9716;53.114;18.040;2022-07-22T08:06:09;13.70;;;5.63;;
19167;SDS011;9716;53.114;18.040;2022-07-22T08:08:41;7.65;;;5.30;;
19167;SDS011;9716;53.114;18.040;2022-07-22T08:11:12;16.88;;;5.90;;
19167;SDS011;9716;53.114;18.040;2022-07-22T08:13:43;14.63;;;6.25;;
19167;SDS011;9716;53.114;18.040;2022-07-22T08:16:14;6.75;;;5.28;;
19167;SDS011;9716;53.114;18.040;2022-07-22T08:18:48;11.18;;;5.18;;
19167;SDS011;9716;53.114;18.040;2022-07-22T08:21:18;8.52;;;4.57;;
19167;SDS011;9716;53.114;18.040;2022-07-22T08:23:47;7.30;;;4.97;;
19167;SDS011;9716;53.114;18.040;2022-07-22T08:26:20;7.70;;;4.97;;
19167;SDS011;9716;53.114;18.040;2022-07-22T08:28:57;12.07;;;5.05;;
19167;SDS011;9716;53.114;18.040;2022-07-22T08:31:28;7.32;;;3.88;;
19167;SDS011;9716;53.114;18.040;2022-07-22T08:34:02;4.65;;;3.45;;
19167;SDS011;9716;53.114;18.040;2022-07-22T08:36:32;9.73;;;4.45;;
19167;SDS011;9716;53.114;18.040;2022-07-22T08:39:02;7.88;;;4.20;;
19167;SDS011;9716;53.114;18.040;2022-07-22T08:41:35;10.43;;;4.70;;
19167;SDS011;9716;53.114;18.040;2022-07-22T08:44:07;5.57;;;3.70;;
19167;SDS011;9716;53.114;18.040;2022-07-22T08:46:39;8.25;;;3.90;;
19167;SDS011;9716;53.114;18.040;2022-07-22T08:49:13;7.80;;;4.03;;
19167;SDS011;9716;53.114;18.040;2022-07-22T08:51:43;10.77;;;4.30;;
19167;SDS011;9716;53.114;18.040;2022-07-22T08:54:14;4.82;;;3.75;;
19167;SDS011;9716;53.114;18.040;2022-07-22T08:56:47;5.65;;;3.90;;
19167;SDS011;9716;53.114;18.040;2022-07-22T08:59:17;8.02;;;3.70;;
19167;SDS011;9716;53.114;18.040;2022-07-22T09:02:06;12.02;;;4.47;;
19167;SDS011;9716;53.114;18.040;2022-07-22T09:04:49;5.93;;;3.22;;
19167;SDS011;9716;53.114;18.040;2022-07-22T09:07:25;4.50;;;3.83;;
19167;SDS011;9716;53.114;18.040;2022-07-22T09:09:55;7.75;;;3.58;;
19167;SDS011;9716;53.114;18.040;2022-07-22T09:12:29;7.78;;;3.88;;
19167;SDS011;9716;53.114;18.040;2022-07-22T09:14:59;4.88;;;3.50;;
19167;SDS011;9716;53.114;18.040;2022-07-22T09:17:32;5.15;;;3.50;;
19167;SDS011;9716;53.114;18.040;2022-07-22T09:20:05;7.00;;;3.42;;
19167;SDS011;9716;53.114;18.040;2022-07-22T09:22:52;6.38;;;3.85;;
19167;SDS011;9716;53.114;18.040;2022-07-22T09:25:23;5.20;;;3.38;;
19167;SDS011;9716;53.114;18.040;2022-07-22T09:28:09;6.28;;;3.55;;
19167;SDS011;9716;53.114;18.040;2022-07-22T09:30:48;4.55;;;3.80;;
19167;SDS011;9716;53.114;18.040;2022-07-22T09:33:22;5.45;;;3.13;;
19167;SDS011;9716;53.114;18.040;2022-07-22T09:35:52;3.65;;;2.65;;
19167;SDS011;9716;53.114;18.040;2022-07-22T09:38:29;5.60;;;3.22;;
19167;SDS011;9716;53.114;18.040;2022-07-22T09:41:03;6.95;;;3.17;;
19167;SDS011;9716;53.114;18.040;2022-07-22T09:43:36;5.15;;;2.80;;
19167;SDS011;9716;53.114;18.040;2022-07-22T09:46:06;5.20;;;3.17;;
19167;SDS011;9716;53.114;18.040;2022-07-22T09:48:42;2.45;;;2.15;;
19167;SDS011;9716;53.114;18.040;2022-07-22T09:51:11;4.22;;;2.35;;
19167;SDS011;9716;53.114;18.040;2022-07-22T09:53:41;3.00;;;2.40;;
19167;SDS011;9716;53.114;18.040;2022-07-22T09:56:12;7.25;;;2.40;;
19167;SDS011;9716;53.114;18.040;2022-07-22T09:58:43;5.35;;;2.78;;
19167;SDS011;9716;53.114;18.040;2022-07-22T10:01:15;4.90;;;2.53;;
19167;SDS011;9716;53.114;18.040;2022-07-22T10:03:46;5.30;;;2.85;;
19167;SDS011;9716;53.114;18.040;2022-07-22T10:06:19;5.88;;;2.65;;
19167;SDS011;9716;53.114;18.040;2022-07-22T10:08:48;2.63;;;2.25;;
19167;SDS011;9716;53.114;18.040;2022-07-22T10:11:27;3.30;;;2.08;;
19167;SDS011;9716;53.114;18.040;2022-07-22T10:13:59;5.57;;;2.45;;
19167;SDS011;9716;53.114;18.040;2022-07-22T10:16:32;5.10;;;2.78;;
19167;SDS011;9716;53.114;18.040;2022-07-22T10:19:02;4.18;;;2.55;;
19167;SDS011;9716;53.114;18.040;2022-07-22T10:21:33;6.88;;;2.45;;
19167;SDS011;9716;53.114;18.040;2022-07-22T10:24:08;7.20;;;2.40;;
19167;SDS011;9716;53.114;18.040;2022-07-22T10:26:46;3.95;;;2.58;;
19167;SDS011;9716;53.114;18.040;2022-07-22T10:29:25;2.40;;;2.17;;
19167;SDS011;9716;53.114;18.040;2022-07-22T10:37:57;3.13;;;2.65;;
19167;SDS011;9716;53.114;18.040;2022-07-22T10:40:31;3.20;;;2.78;;
19167;SDS011;9716;53.114;18.040;2022-07-22T10:43:14;2.85;;;1.95;;
19167;SDS011;9716;53.114;18.040;2022-07-22T10:45:51;2.72;;;2.28;;
19167;SDS011;9716;53.114;18.040;2022-07-22T10:48:22;6.45;;;2.35;;
19167;SDS011;9716;53.114;18.040;2022-07-22T10:53:39;5.38;;;2.60;;
19167;SDS011;9716;53.114;18.040;2022-07-22T10:56:16;5.07;;;2.63;;
19167;SDS011;9716;53.114;18.040;2022-07-22T10:58:51;4.85;;;2.70;;
19167;SDS011;9716;53.114;18.040;2022-07-22T11:01:24;4.18;;;2.33;;
19167;SDS011;9716;53.114;18.040;2022-07-22T11:03:56;3.10;;;2.67;;
19167;SDS011;9716;53.114;18.040;2022-07-22T11:06:43;3.53;;;2.60;;
19167;SDS011;9716;53.114;18.040;2022-07-22T11:09:13;4.00;;;2.40;;
19167;SDS011;9716;53.114;18.040;2022-07-22T11:11:46;7.43;;;3.20;;
19167;SDS011;9716;53.114;18.040;2022-07-22T11:14:18;5.05;;;2.63;;
19167;SDS011;9716;53.114;18.040;2022-07-22T11:16:56;3.42;;;2.60;;
19167;SDS011;9716;53.114;18.040;2022-07-22T11:19:27;4.85;;;2.70;;
19167;SDS011;9716;53.114;18.040;2022-07-22T11:21:58;5.32;;;2.88;;
19167;SDS011;9716;53.114;18.040;2022-07-22T11:24:28;3.63;;;2.50;;
19167;SDS011;9716;53.114;18.040;2022-07-22T11:26:59;4.80;;;2.80;;
19167;SDS011;9716;53.114;18.040;2022-07-22T11:29:32;4.82;;;2.90;;
19167;SDS011;9716;53.114;18.040;2022-07-22T11:32:04;4.20;;;2.40;;
19167;SDS011;9716;53.114;18.040;2022-07-22T11:34:35;5.82;;;2.97;;
19167;SDS011;9716;53.114;18.040;2022-07-22T11:37:05;4.60;;;2.90;;
19167;SDS011;9716;53.114;18.040;2022-07-22T11:39:34;4.55;;;2.55;;
19167;SDS011;9716;53.114;18.040;2022-07-22T11:42:04;3.03;;;2.53;;
19167;SDS011;9716;53.114;18.040;2022-07-22T11:44:34;6.80;;;3.38;;
19167;SDS011;9716;53.114;18.040;2022-07-22T11:47:07;3.35;;;2.25;;
19167;SDS011;9716;53.114;18.040;2022-07-22T11:49:37;10.93;;;3.03;;
19167;SDS011;9716;53.114;18.040;2022-07-22T11:52:07;4.13;;;3.15;;
19167;SDS011;9716;53.114;18.040;2022-07-22T11:54:39;3.60;;;2.75;;
19167;SDS011;9716;53.114;18.040;2022-07-22T11:57:10;5.13;;;3.25;;
19167;SDS011;9716;53.114;18.040;2022-07-22T11:59:40;7.88;;;3.70;;
19167;SDS011;9716;53.114;18.040;2022-07-22T12:02:11;5.03;;;3.00;;
19167;SDS011;9716;53.114;18.040;2022-07-22T12:04:42;3.22;;;2.78;;
19167;SDS011;9716;53.114;18.040;2022-07-22T12:07:14;5.28;;;2.80;;
19167;SDS011;9716;53.114;18.040;2022-07-22T12:09:44;3.10;;;2.67;;
19167;SDS011;9716;53.114;18.040;2022-07-22T12:12:14;7.30;;;4.15;;
19167;SDS011;9716;53.114;18.040;2022-07-22T12:14:44;4.90;;;3.33;;
19167;SDS011;9716;53.114;18.040;2022-07-22T12:17:17;3.53;;;3.00;;
19167;SDS011;9716;53.114;18.040;2022-07-22T12:19:45;8.65;;;3.20;;
19167;SDS011;9716;53.114;18.040;2022-07-22T12:22:19;6.30;;;3.25;;
19167;SDS011;9716;53.114;18.040;2022-07-22T12:24:57;4.80;;;3.25;;
19167;SDS011;9716;53.114;18.040;2022-07-22T12:27:28;4.05;;;3.38;;
19167;SDS011;9716;53.114;18.040;2022-07-22T12:29:57;4.22;;;3.05;;
19167;SDS011;9716;53.114;18.040;2022-07-22T12:32:28;3.88;;;2.78;;
19167;SDS011;9716;53.114;18.040;2022-07-22T12:34:57;3.63;;;3.05;;
19167;SDS011;9716;53.114;18.040;2022-07-22T12:37:29;4.85;;;3.15;;
19167;SDS011;9716;53.114;18.040;2022-07-22T12:39:59;4.70;;;3.53;;
19167;SDS011;9716;53.114;18.040;2022-07-22T12:42:31;6.40;;;3.80;;
19167;SDS011;9716;53.114;18.040;2022-07-22T12:45:03;5.25;;;3.35;;
19167;SDS011;9716;53.114;18.040;2022-07-22T12:47:45;7.60;;;3.78;;
19167;SDS011;9716;53.114;18.040;2022-07-22T12:50:22;6.22;;;3.10;;
19167;SDS011;9716;53.114;18.040;2022-07-22T12:52:54;5.07;;;3.60;;
19167;SDS011;9716;53.114;18.040;2022-07-22T12:55:42;5.20;;;3.50;;
19167;SDS011;9716;53.114;18.040;2022-07-22T12:58:13;5.25;;;3.58;;
19167;SDS011;9716;53.114;18.040;2022-07-22T13:00:46;5.47;;;3.55;;
19167;SDS011;9716;53.114;18.040;2022-07-22T13:03:17;5.65;;;3.38;;
19167;SDS011;9716;53.114;18.040;2022-07-22T13:05:49;6.68;;;3.92;;
19167;SDS011;9716;53.114;18.040;2022-07-22T13:08:19;5.88;;;3.40;;
19167;SDS011;9716;53.114;18.040;2022-07-22T13:10:50;6.18;;;3.80;;
19167;SDS011;9716;53.114;18.040;2022-07-22T13:13:20;5.55;;;3.80;;
19167;SDS011;9716;53.114;18.040;2022-07-22T13:15:50;5.68;;;3.67;;
19167;SDS011;9716;53.114;18.040;2022-07-22T13:18:20;5.95;;;3.22;;
19167;SDS011;9716;53.114;18.040;2022-07-22T13:20:49;10.85;;;3.58;;
19167;SDS011;9716;53.114;18.040;2022-07-22T13:23:18;4.00;;;3.20;;
19167;SDS011;9716;53.114;18.040;2022-07-22T13:25:47;6.43;;;3.67;;
19167;SDS011;9716;53.114;18.040;2022-07-22T13:28:21;6.20;;;3.40;;
19167;SDS011;9716;53.114;18.040;2022-07-22T13:30:50;6.15;;;3.03;;
19167;SDS011;9716;53.114;18.040;2022-07-22T13:33:22;5.30;;;3.38;;
19167;SDS011;9716;53.114;18.040;2022-07-22T13:35:52;5.15;;;3.85;;
19167;SDS011;9716;53.114;18.040;2022-07-22T13:38:21;11.13;;;3.80;;
19167;SDS011;9716;53.114;18.040;2022-07-22T13:40:52;8.63;;;3.60;;
19167;SDS011;9716;53.114;18.040;2022-07-22T13:43:21;3.72;;;3.15;;
19167;SDS011;9716;53.114;18.040;2022-07-22T13:45:52;3.42;;;2.42;;
19167;SDS011;9716;53.114;18.040;2022-07-22T13:48:23;5.95;;;2.63;;
19167;SDS011;9716;53.114;18.040;2022-07-22T13:50:52;4.68;;;3.05;;
19167;SDS011;9716;53.114;18.040;2022-07-22T13:53:21;5.45;;;3.25;;
19167;SDS011;9716;53.114;18.040;2022-07-22T13:55:51;4.32;;;3.08;;
19167;SDS011;9716;53.114;18.040;2022-07-22T13:58:20;4.78;;;3.20;;
19167;SDS011;9716;53.114;18.040;2022-07-22T14:00:49;4.38;;;2.50;;
19167;SDS011;9716;53.114;18.040;2022-07-22T14:03:18;3.00;;;2.60;;
19167;SDS011;9716;53.114;18.040;2022-07-22T14:05:48;5.40;;;2.85;;
19167;SDS011;9716;53.114;18.040;2022-07-22T14:08:17;6.75;;;3.90;;
19167;SDS011;9716;53.114;18.040;2022-07-22T14:10:47;4.70;;;3.03;;
19167;SDS011;9716;53.114;18.040;2022-07-22T14:13:16;3.65;;;2.85;;
19167;SDS011;9716;53.114;18.040;2022-07-22T14:15:45;4.28;;;2.95;;
19167;SDS011;9716;53.114;18.040;2022-07-22T14:18:14;5.35;;;3.13;;
19167;SDS011;9716;53.114;18.040;2022-07-22T14:20:44;4.78;;;3.13;;
19167;SDS011;9716;53.114;18.040;2022-07-22T14:23:14;6.88;;;3.15;;
19167;SDS011;9716;53.114;18.040;2022-07-22T14:25:47;10.77;;;3.42;;
19167;SDS011;9716;53.114;18.040;2022-07-22T14:28:21;7.00;;;2.88;;
19167;SDS011;9716;53.114;18.040;2022-07-22T14:31:05;4.28;;;3.47;;
19167;SDS011;9716;53.114;18.040;2022-07-22T14:33:34;4.63;;;2.78;;
19167;SDS011;9716;53.114;18.040;2022-07-22T14:36:07;3.38;;;2.75;;
19167;SDS011;9716;53.114;18.040;2022-07-22T14:38:38;5.18;;;2.83;;
19167;SDS011;9716;53.114;18.040;2022-07-22T14:41:07;4.75;;;2.92;;
19167;SDS011;9716;53.114;18.040;2022-07-22T14:43:36;6.43;;;3.67;;
19167;SDS011;9716;53.114;18.040;2022-07-22T14:46:09;5.95;;;3.65;;
19167;SDS011;9716;53.114;18.040;2022-07-22T14:48:38;5.57;;;3.13;;
19167;SDS011;9716;53.114;18.040;2022-07-22T14:51:11;4.50;;;3.22;;
19167;SDS011;9716;53.114;18.040;2022-07-22T14:53:42;3.42;;;2.90;;
19167;SDS011;9716;53.114;18.040;2022-07-22T14:56:11;4.28;;;2.90;;
19167;SDS011;9716;53.114;18.040;2022-07-22T14:58:40;8.75;;;3.30;;
19167;SDS011;9716;53.114;18.040;2022-07-22T15:01:09;6.18;;;3.05;;
19167;SDS011;9716;53.114;18.040;2022-07-22T15:03:40;5.65;;;3.15;;
19167;SDS011;9716;53.114;18.040;2022-07-22T15:06:09;3.63;;;2.80;;
19167;SDS011;9716;53.114;18.040;2022-07-22T15:08:38;4.00;;;2.78;;
19167;SDS011;9716;53.114;18.040;2022-07-22T15:11:09;8.15;;;3.40;;
19167;SDS011;9716;53.114;18.040;2022-07-22T15:13:38;8.13;;;3.00;;